createdAt,value
2023-02-28T00:01:04.335Z,37.00
2023-02-28T00:03:34.610Z,37.10
2023-02-28T00:06:04.014Z,37.10
2023-02-28T00:08:33.019Z,37.30
2023-02-28T00:11:01.184Z,37.10
2023-02-28T00:13:30.419Z,37.40
2023-02-28T00:15:59.745Z,37.30
2023-02-28T00:18:31.382Z,37.30
2023-02-28T00:21:00.414Z,37.20
2023-02-28T00:23:29.108Z,37.20
2023-02-28T00:25:58.181Z,37.70
2023-02-28T00:28:26.422Z,37.10
2023-02-28T00:30:55.726Z,37.10
2023-02-28T00:33:25.161Z,37.40
2023-02-28T00:35:56.543Z,37.30
2023-02-28T00:38:25.829Z,37.10
2023-02-28T00:40:55.273Z,37.10
2023-02-28T00:43:24.554Z,37.20
2023-02-28T00:45:53.461Z,37.10
2023-02-28T00:48:22.432Z,37.10
2023-02-28T00:50:50.638Z,37.20
2023-02-28T00:53:19.030Z,37.20
2023-02-28T00:55:47.930Z,37.40
2023-02-28T00:58:17.374Z,37.40
2023-02-28T01:00:46.637Z,37.30
2023-02-28T01:03:15.151Z,37.40
2023-02-28T01:05:43.871Z,37.40
2023-02-28T01:08:12.799Z,37.40
2023-02-28T01:10:41.611Z,37.40
2023-02-28T01:13:10.406Z,37.40
2023-02-28T01:15:39.649Z,37.30
2023-02-28T01:18:08.830Z,37.50
2023-02-28T01:20:37.712Z,37.50
2023-02-28T01:23:06.936Z,37.20
2023-02-28T01:25:35.687Z,37.40
2023-02-28T01:28:06.099Z,37.40
2023-02-28T01:30:35.748Z,37.50
2023-02-28T01:33:04.554Z,37.30
2023-02-28T01:35:34.858Z,37.30
2023-02-28T01:38:20.527Z,37.60
2023-02-28T01:40:49.939Z,37.60
2023-02-28T01:43:18.330Z,37.50
2023-02-28T01:45:46.730Z,37.60
2023-02-28T01:48:15.605Z,37.30
2023-02-28T01:50:44.356Z,37.40
2023-02-28T01:53:13.113Z,37.70
2023-02-28T01:55:50.288Z,37.30
2023-02-28T01:58:21.578Z,37.40
2023-02-28T02:00:50.038Z,37.40
2023-02-28T02:03:19.023Z,37.40
2023-02-28T02:05:48.563Z,37.30
2023-02-28T02:08:17.473Z,37.30
2023-02-28T02:10:46.800Z,37.40
2023-02-28T02:13:15.618Z,37.30
2023-02-28T02:15:44.485Z,37.30
2023-02-28T02:18:13.375Z,37.40
2023-02-28T02:20:42.220Z,37.30
2023-02-28T02:23:12.016Z,37.40
2023-02-28T02:25:42.249Z,37.40
2023-02-28T02:28:11.505Z,37.30
2023-02-28T02:30:40.263Z,37.30
2023-02-28T02:33:09.002Z,37.40
2023-02-28T02:35:37.804Z,37.40
2023-02-28T02:38:06.643Z,37.40
2023-02-28T02:40:37.782Z,37.40
2023-02-28T02:43:06.602Z,37.50
2023-02-28T02:45:35.013Z,37.40
2023-02-28T02:48:03.853Z,37.40
2023-02-28T02:50:32.751Z,37.40
2023-02-28T02:53:01.535Z,37.50
2023-02-28T02:55:30.981Z,37.50
2023-02-28T02:57:59.821Z,37.50
2023-02-28T03:00:28.687Z,37.50
2023-02-28T03:02:57.530Z,37.50
2023-02-28T03:05:26.800Z,37.50
2023-02-28T03:07:56.680Z,37.70
2023-02-28T03:10:25.559Z,37.60
2023-02-28T03:12:54.898Z,37.60
2023-02-28T03:15:24.716Z,37.60
2023-02-28T03:17:53.655Z,37.50
2023-02-28T03:20:22.509Z,37.60
2023-02-28T03:22:51.829Z,37.50
2023-02-28T03:25:22.308Z,37.60
2023-02-28T03:27:52.501Z,37.60
2023-02-28T03:30:21.841Z,38.30
2023-02-28T03:32:54.371Z,37.70
2023-02-28T03:35:23.906Z,37.70
2023-02-28T03:37:54.115Z,37.70
2023-02-28T03:40:23.344Z,37.70
2023-02-28T03:42:51.789Z,37.70
2023-02-28T03:45:20.582Z,37.80
2023-02-28T03:47:48.990Z,37.70
2023-02-28T03:50:18.952Z,37.70
2023-02-28T03:52:50.207Z,38.40
2023-02-28T03:55:19.782Z,37.70
2023-02-28T03:57:48.713Z,37.70
2023-02-28T04:00:17.174Z,37.80
2023-02-28T04:02:46.477Z,37.80
2023-02-28T04:05:15.686Z,37.80
2023-02-28T04:07:44.434Z,37.70
2023-02-28T04:10:13.217Z,37.70
2023-02-28T04:12:41.682Z,37.60
2023-02-28T04:15:09.688Z,37.70
2023-02-28T04:17:39.821Z,37.70
2023-02-28T04:20:10.100Z,37.80
2023-02-28T04:22:39.403Z,37.80
2023-02-28T04:25:08.734Z,37.80
2023-02-28T04:27:37.979Z,37.70
2023-02-28T04:30:07.228Z,37.70
2023-02-28T04:32:36.044Z,37.70
2023-02-28T04:35:05.345Z,37.80
2023-02-28T04:37:34.561Z,37.80
2023-02-28T04:40:03.432Z,37.80
2023-02-28T04:42:32.044Z,37.80
2023-02-28T04:45:00.773Z,37.90
2023-02-28T04:47:29.657Z,37.90
2023-02-28T04:49:58.609Z,37.80
2023-02-28T04:52:26.859Z,37.80
2023-02-28T04:54:56.177Z,37.70
2023-02-28T04:57:24.964Z,37.70
2023-02-28T04:59:54.176Z,37.70
2023-02-28T05:02:22.295Z,37.80
2023-02-28T05:04:50.514Z,37.70
2023-02-28T05:07:19.815Z,37.70
2023-02-28T05:09:49.036Z,37.70
2023-02-28T05:12:17.904Z,37.80
2023-02-28T05:14:47.115Z,37.80
2023-02-28T05:17:16.391Z,37.80
2023-02-28T05:19:45.617Z,37.80
2023-02-28T05:22:14.756Z,37.80
2023-02-28T05:24:43.909Z,37.80
2023-02-28T05:27:13.173Z,37.90
2023-02-28T05:29:42.037Z,37.80
2023-02-28T05:32:11.450Z,37.90
2023-02-28T05:34:40.883Z,37.80
2023-02-28T05:37:10.163Z,37.90
2023-02-28T05:39:39.396Z,37.90
2023-02-28T05:42:08.662Z,37.90
2023-02-28T05:44:38.004Z,37.90
2023-02-28T05:47:07.412Z,37.90
2023-02-28T05:49:36.717Z,37.90
2023-02-28T05:52:09.764Z,37.90
2023-02-28T05:54:38.949Z,37.80
2023-02-28T05:57:15.480Z,37.80
2023-02-28T05:59:51.587Z,37.80
2023-02-28T06:02:20.591Z,37.90
2023-02-28T06:04:49.286Z,37.90
2023-02-28T06:07:18.470Z,37.90
2023-02-28T06:09:46.765Z,37.90
2023-02-28T06:12:15.981Z,37.90
2023-02-28T06:14:44.335Z,37.90
2023-02-28T06:17:13.578Z,37.90
2023-02-28T06:19:42.561Z,38.00
2023-02-28T06:22:11.723Z,38.00
2023-02-28T06:24:40.284Z,38.00
2023-02-28T06:27:10.740Z,38.00
2023-02-28T06:29:40.239Z,38.00
2023-02-28T06:32:09.881Z,38.00
2023-02-28T06:34:37.658Z,38.00
2023-02-28T06:37:06.614Z,38.00
2023-02-28T06:39:35.630Z,38.00
2023-02-28T06:42:06.191Z,37.90
2023-02-28T06:44:35.732Z,38.00
2023-02-28T06:47:07.401Z,38.00
2023-02-28T06:49:37.454Z,38.00
2023-02-28T06:52:06.864Z,37.90
2023-02-28T06:54:34.917Z,38.00
2023-02-28T06:57:03.893Z,38.00
2023-02-28T06:59:33.195Z,38.00
2023-02-28T07:02:02.094Z,38.00
2023-02-28T07:04:30.766Z,38.00
2023-02-28T07:06:59.570Z,37.90
2023-02-28T07:09:28.773Z,38.00
2023-02-28T07:11:57.913Z,38.00
2023-02-28T07:14:26.697Z,37.90
2023-02-28T07:16:55.698Z,37.90
2023-02-28T07:19:24.282Z,37.80
2023-02-28T07:21:53.446Z,37.70
2023-02-28T07:24:22.628Z,37.80
2023-02-28T07:26:51.396Z,37.80
2023-02-28T07:29:20.176Z,37.80
2023-02-28T07:31:49.094Z,37.70
2023-02-28T07:34:17.967Z,37.80
2023-02-28T07:36:47.304Z,37.70
2023-02-28T07:39:16.284Z,37.80
2023-02-28T07:41:45.121Z,37.80
2023-02-28T07:44:14.598Z,37.80
2023-02-28T07:46:43.979Z,37.80
2023-02-28T07:49:12.899Z,37.80
2023-02-28T07:51:42.196Z,37.70
2023-02-28T07:54:11.402Z,37.60
2023-02-28T07:56:40.172Z,37.60
2023-02-28T07:59:09.349Z,37.50
2023-02-28T08:01:38.080Z,37.40
2023-02-28T08:04:06.828Z,37.40
2023-02-28T08:06:35.371Z,37.50
2023-02-28T08:09:03.616Z,37.40
2023-02-28T08:11:32.877Z,37.40
2023-02-28T08:14:02.221Z,37.20
2023-02-28T08:16:31.202Z,37.10
2023-02-28T08:19:01.649Z,37.00
2023-02-28T08:21:30.962Z,36.90
2023-02-28T08:23:59.963Z,36.70
2023-02-28T08:26:29.324Z,36.60
2023-02-28T08:29:00.355Z,36.30
2023-02-28T08:31:30.893Z,36.20
2023-02-28T08:34:00.265Z,36.10
2023-02-28T08:36:28.663Z,36.70
2023-02-28T08:38:57.406Z,35.80
2023-02-28T08:41:26.248Z,35.30
2023-02-28T08:43:55.302Z,35.10
2023-02-28T08:46:23.884Z,34.80
2023-02-28T08:48:52.722Z,34.60
2023-02-28T08:51:22.413Z,34.40
2023-02-28T08:53:51.227Z,34.30
2023-02-28T08:56:20.503Z,33.70
2023-02-28T08:58:49.751Z,32.20
2023-02-28T09:01:19.066Z,31.40
2023-02-28T09:03:48.457Z,31.00
2023-02-28T09:06:17.122Z,30.70
2023-02-28T09:08:44.982Z,30.00
2023-02-28T09:11:13.571Z,29.00
2023-02-28T09:13:42.828Z,28.30
2023-02-28T09:16:12.177Z,27.90
2023-02-28T09:18:41.412Z,27.30
2023-02-28T09:21:10.241Z,26.70
2023-02-28T09:23:40.404Z,26.40
2023-02-28T09:26:10.705Z,25.80
2023-02-28T09:28:39.688Z,25.10
2023-02-28T09:31:08.436Z,24.90
2023-02-28T09:33:37.711Z,24.40
2023-02-28T09:36:06.761Z,24.30
2023-02-28T09:38:35.569Z,24.10
2023-02-28T09:41:08.557Z,23.80
2023-02-28T09:43:37.867Z,23.60
2023-02-28T09:46:07.265Z,23.40
2023-02-28T09:48:36.502Z,23.30
2023-02-28T09:51:05.820Z,23.20
2023-02-28T09:53:35.309Z,23.10
2023-02-28T09:56:04.649Z,22.90
2023-02-28T09:58:33.636Z,22.80
2023-02-28T10:01:02.530Z,22.80
2023-02-28T10:03:31.857Z,22.70
2023-02-28T10:06:00.663Z,22.70
2023-02-28T10:08:29.375Z,22.70
2023-02-28T10:10:58.141Z,22.80
2023-02-28T10:13:27.308Z,22.80
2023-02-28T10:15:56.746Z,22.80
2023-02-28T10:18:26.102Z,22.90
2023-02-28T10:20:55.456Z,23.00
2023-02-28T10:23:24.919Z,23.10
2023-02-28T10:25:54.206Z,23.20
2023-02-28T10:28:27.081Z,23.50
2023-02-28T10:30:56.027Z,23.60
2023-02-28T10:33:24.892Z,24.00
2023-02-28T10:35:53.913Z,24.20
2023-02-28T10:38:22.438Z,24.50
2023-02-28T10:40:51.217Z,24.80
2023-02-28T10:43:24.241Z,25.10
2023-02-28T10:45:52.945Z,25.30
2023-02-28T10:48:21.313Z,25.60
2023-02-28T10:50:51.213Z,25.80
2023-02-28T10:53:19.978Z,25.80
2023-02-28T10:55:48.849Z,26.10
2023-02-28T10:58:17.645Z,26.20
2023-02-28T11:00:46.955Z,26.20
2023-02-28T11:03:16.206Z,26.20
2023-02-28T11:05:45.451Z,26.20
2023-02-28T11:08:14.813Z,26.00
2023-02-28T11:10:44.346Z,26.10
2023-02-28T11:13:13.622Z,26.10
2023-02-28T11:15:42.893Z,26.00
2023-02-28T11:18:12.117Z,25.90
2023-02-28T11:20:40.978Z,25.60
2023-02-28T11:23:10.246Z,25.20
2023-02-28T11:25:39.502Z,24.80
2023-02-28T11:28:08.381Z,24.40
2023-02-28T11:30:37.733Z,24.20
2023-02-28T11:33:07.033Z,24.20
2023-02-28T11:35:36.578Z,24.20
2023-02-28T11:38:05.738Z,24.20
2023-02-28T11:40:34.566Z,24.20
2023-02-28T11:43:03.879Z,24.30
2023-02-28T11:45:33.103Z,24.50
2023-02-28T11:48:02.280Z,24.70
2023-02-28T11:50:31.156Z,25.10
2023-02-28T11:53:00.534Z,25.30
2023-02-28T11:55:30.911Z,25.60
2023-02-28T11:58:00.965Z,25.90
2023-02-28T12:00:29.346Z,25.90
2023-02-28T12:02:58.320Z,26.10
2023-02-28T12:05:27.490Z,26.40
2023-02-28T12:07:56.792Z,26.50
2023-02-28T12:10:26.136Z,26.40
2023-02-28T12:12:59.446Z,26.40
2023-02-28T12:15:28.368Z,26.50
2023-02-28T12:17:57.684Z,26.50
2023-02-28T12:20:27.005Z,26.20
2023-02-28T12:22:56.282Z,26.30
2023-02-28T12:25:25.554Z,26.40
2023-02-28T12:27:54.975Z,26.40
2023-02-28T12:30:24.233Z,26.40
2023-02-28T12:32:53.489Z,26.50
2023-02-28T12:35:22.557Z,26.50
2023-02-28T12:37:50.764Z,27.00
2023-02-28T12:40:19.941Z,26.50
2023-02-28T12:42:49.168Z,26.40
2023-02-28T12:45:18.335Z,26.20
2023-02-28T12:47:47.593Z,26.20
2023-02-28T12:50:17.290Z,26.30
2023-02-28T12:52:46.632Z,26.30
2023-02-28T12:55:16.015Z,26.30
2023-02-28T12:57:45.058Z,26.20
2023-02-28T13:00:13.419Z,26.20
2023-02-28T13:02:41.864Z,26.90
2023-02-28T13:05:10.440Z,26.50
2023-02-28T13:07:39.470Z,26.40
2023-02-28T13:10:08.710Z,26.50
2023-02-28T13:12:38.583Z,26.60
2023-02-28T13:15:07.896Z,26.40
2023-02-28T13:17:37.139Z,26.20
2023-02-28T13:20:06.395Z,26.40
2023-02-28T13:22:35.737Z,26.30
2023-02-28T13:25:05.061Z,26.10
2023-02-28T13:27:33.849Z,25.90
2023-02-28T13:30:03.089Z,26.00
2023-02-28T13:32:31.362Z,26.10
2023-02-28T13:35:00.578Z,26.10
2023-02-28T13:37:29.910Z,26.20
2023-02-28T13:39:59.171Z,25.90
2023-02-28T13:42:28.198Z,26.00
2023-02-28T13:44:56.392Z,26.20
2023-02-28T13:47:25.478Z,26.30
2023-02-28T13:49:53.748Z,26.20
2023-02-28T13:52:21.495Z,26.20
2023-02-28T13:54:49.779Z,26.20
2023-02-28T13:57:19.021Z,26.00
2023-02-28T13:59:48.231Z,26.00
2023-02-28T14:02:17.476Z,26.10
2023-02-28T14:04:46.235Z,26.20
2023-02-28T14:07:15.496Z,26.30
2023-02-28T14:09:44.846Z,26.30
2023-02-28T14:12:14.187Z,26.70
2023-02-28T14:14:43.506Z,26.30
2023-02-28T14:17:12.711Z,26.40
2023-02-28T14:19:41.977Z,26.30
2023-02-28T14:22:11.241Z,26.20
2023-02-28T14:24:40.454Z,26.10
2023-02-28T14:27:09.771Z,26.10
2023-02-28T14:29:39.068Z,26.00
2023-02-28T14:32:07.972Z,25.90
2023-02-28T14:34:36.780Z,25.90
2023-02-28T14:37:05.989Z,25.80
2023-02-28T14:39:35.185Z,25.80
2023-02-28T14:42:04.486Z,25.90
2023-02-28T14:44:33.526Z,26.00
2023-02-28T14:47:02.202Z,25.90
2023-02-28T14:49:30.985Z,25.80
2023-02-28T14:51:59.752Z,25.80
2023-02-28T14:54:29.343Z,25.80
2023-02-28T14:56:58.690Z,25.60
2023-02-28T14:59:27.484Z,25.70
2023-02-28T15:01:56.678Z,25.90
2023-02-28T15:04:26.024Z,26.20
2023-02-28T15:06:55.432Z,26.50
2023-02-28T15:09:24.721Z,26.60
2023-02-28T15:11:54.031Z,26.90
2023-02-28T15:14:22.451Z,27.10
2023-02-28T15:16:51.092Z,27.30
2023-02-28T15:19:20.584Z,27.40
2023-02-28T15:21:49.919Z,27.60
2023-02-28T15:24:19.245Z,27.70
2023-02-28T15:26:48.554Z,27.90
2023-02-28T15:29:17.732Z,28.10
2023-02-28T15:31:56.921Z,28.50
2023-02-28T15:34:33.718Z,28.80
2023-02-28T15:37:06.350Z,28.90
2023-02-28T15:39:35.595Z,28.80
2023-02-28T15:42:04.891Z,28.80
2023-02-28T15:44:34.774Z,28.90
2023-02-28T15:47:04.967Z,29.10
2023-02-28T15:49:42.689Z,29.10
2023-02-28T15:52:13.922Z,29.10
2023-02-28T15:54:43.161Z,29.20
2023-02-28T15:57:12.470Z,29.40
2023-02-28T15:59:41.707Z,29.50
2023-02-28T16:02:10.728Z,29.60
2023-02-28T16:04:40.166Z,29.70
2023-02-28T16:07:09.412Z,29.90
2023-02-28T16:09:38.635Z,29.80
2023-02-28T16:12:07.482Z,29.80
2023-02-28T16:14:36.302Z,29.80
2023-02-28T16:17:05.031Z,29.90
2023-02-28T16:19:34.847Z,30.00
2023-02-28T16:22:03.496Z,30.20
2023-02-28T16:24:32.289Z,30.20
2023-02-28T16:27:01.577Z,30.30
2023-02-28T16:29:30.600Z,30.40
2023-02-28T16:31:59.270Z,30.40
2023-02-28T16:34:28.617Z,30.40
2023-02-28T16:36:57.931Z,30.50
2023-02-28T16:39:27.282Z,30.50
2023-02-28T16:41:56.612Z,30.40
2023-02-28T16:44:25.592Z,30.40
2023-02-28T16:46:54.242Z,30.40
2023-02-28T16:49:23.536Z,30.50
2023-02-28T16:51:53.345Z,30.60
2023-02-28T16:54:22.671Z,30.70
2023-02-28T16:56:52.016Z,30.70
2023-02-28T16:59:21.260Z,30.70
2023-02-28T17:01:51.529Z,30.90
2023-02-28T17:04:21.881Z,30.90
2023-02-28T17:06:51.154Z,30.90
2023-02-28T17:09:20.883Z,31.00
2023-02-28T17:11:49.096Z,31.10
2023-02-28T17:14:17.964Z,31.10
2023-02-28T17:16:47.314Z,31.20
2023-02-28T17:19:16.759Z,31.40
2023-02-28T17:21:46.060Z,31.40
2023-02-28T17:24:22.086Z,31.50
2023-02-28T17:26:58.215Z,31.70
2023-02-28T17:29:27.118Z,31.70
2023-02-28T17:32:03.116Z,31.90
2023-02-28T17:34:38.229Z,32.00
2023-02-28T17:37:07.610Z,32.10
2023-02-28T17:39:36.809Z,32.20
2023-02-28T17:42:05.999Z,32.30
2023-02-28T17:44:34.889Z,32.40
2023-02-28T17:47:03.867Z,32.50
2023-02-28T17:49:32.467Z,32.60
2023-02-28T17:52:01.973Z,32.60
2023-02-28T17:54:30.811Z,32.70
2023-02-28T17:56:59.595Z,32.80
2023-02-28T17:59:28.801Z,32.80
2023-02-28T18:01:58.028Z,32.90
2023-02-28T18:04:27.299Z,32.80
2023-02-28T18:06:56.559Z,33.00
2023-02-28T18:09:25.937Z,33.00
2023-02-28T18:11:55.259Z,33.10
2023-02-28T18:14:24.598Z,33.00
2023-02-28T18:16:54.026Z,33.10
2023-02-28T18:19:22.956Z,33.30
2023-02-28T18:21:51.491Z,33.10
2023-02-28T18:24:20.769Z,33.20
2023-02-28T18:26:49.722Z,33.30
2023-02-28T18:29:18.481Z,33.20
2023-02-28T18:31:48.131Z,33.30
2023-02-28T18:34:16.944Z,33.40
2023-02-28T18:36:45.883Z,33.40
2023-02-28T18:39:14.516Z,33.40
2023-02-28T18:41:44.024Z,33.60
2023-02-28T18:44:19.908Z,33.60
2023-02-28T18:46:49.808Z,33.70
2023-02-28T18:49:18.683Z,33.70
2023-02-28T18:51:47.992Z,33.80
2023-02-28T18:54:17.319Z,33.70
2023-02-28T18:56:46.675Z,33.80
2023-02-28T18:59:15.474Z,33.80
2023-02-28T19:01:44.777Z,33.90
2023-02-28T19:04:14.137Z,34.00
2023-02-28T19:06:43.332Z,34.00
2023-02-28T19:09:12.214Z,34.00
2023-02-28T19:11:41.517Z,34.00
2023-02-28T19:14:10.763Z,34.10
2023-02-28T19:16:39.686Z,34.10
2023-02-28T19:19:08.902Z,34.20
2023-02-28T19:21:37.866Z,34.30
2023-02-28T19:24:06.727Z,34.20
2023-02-28T19:26:36.397Z,34.20
2023-02-28T19:29:06.046Z,34.30
2023-02-28T19:31:35.638Z,34.20
2023-02-28T19:34:08.407Z,34.40
2023-02-28T19:36:37.185Z,34.40
2023-02-28T19:39:05.647Z,34.40
2023-02-28T19:41:34.261Z,34.40
2023-02-28T19:44:03.497Z,34.40
2023-02-28T19:46:32.324Z,34.40
2023-02-28T19:49:01.143Z,34.60
2023-02-28T19:51:30.011Z,34.40
2023-02-28T19:53:59.074Z,34.60
2023-02-28T19:56:27.721Z,34.60
2023-02-28T19:58:56.547Z,34.60
2023-02-28T20:01:25.436Z,34.70
2023-02-28T20:03:54.700Z,34.60
2023-02-28T20:06:23.940Z,34.50
2023-02-28T20:08:53.090Z,34.50
2023-02-28T20:11:22.278Z,34.60
2023-02-28T20:13:51.560Z,34.60
2023-02-28T20:16:21.033Z,34.50
2023-02-28T20:18:50.712Z,34.50
2023-02-28T20:21:20.151Z,34.60
2023-02-28T20:23:49.458Z,34.40
2023-02-28T20:26:19.055Z,34.60
2023-02-28T20:28:48.480Z,34.50
2023-02-28T20:31:17.624Z,34.60
2023-02-28T20:33:47.046Z,34.50
2023-02-28T20:36:16.464Z,34.60
2023-02-28T20:38:45.432Z,34.80
2023-02-28T20:41:14.737Z,34.60
2023-02-28T20:43:43.480Z,34.70
2023-02-28T20:46:12.962Z,34.80
2023-02-28T20:48:42.072Z,34.80
2023-02-28T20:51:10.646Z,34.70
2023-02-28T20:53:39.988Z,34.80
2023-02-28T20:56:08.992Z,34.70
2023-02-28T20:58:36.843Z,34.60
2023-02-28T21:01:05.463Z,34.90
2023-02-28T21:03:34.774Z,34.70
2023-02-28T21:06:04.048Z,34.60
2023-02-28T21:08:33.362Z,34.80
2023-02-28T21:11:02.675Z,34.70
2023-02-28T21:13:31.958Z,35.00
2023-02-28T21:16:01.175Z,34.80
2023-02-28T21:18:30.418Z,34.70
2023-02-28T21:20:59.727Z,34.70
2023-02-28T21:23:28.111Z,35.00
2023-02-28T21:25:56.875Z,34.80
2023-02-28T21:28:26.125Z,34.80
2023-02-28T21:30:55.460Z,34.80
2023-02-28T21:33:28.588Z,34.80
2023-02-28T21:35:57.785Z,34.80
2023-02-28T21:38:26.283Z,35.10
2023-02-28T21:40:54.598Z,34.80
2023-02-28T21:43:23.164Z,35.10
2023-02-28T21:45:51.881Z,34.80
2023-02-28T21:48:20.586Z,34.80
2023-02-28T21:50:49.440Z,34.90
2023-02-28T21:53:18.774Z,34.90
2023-02-28T21:55:48.031Z,34.90
2023-02-28T21:58:17.253Z,34.90
2023-02-28T22:00:46.467Z,34.90
2023-02-28T22:03:15.325Z,34.90
2023-02-28T22:05:44.560Z,34.90
2023-02-28T22:08:13.914Z,34.90
2023-02-28T22:10:43.188Z,34.90
2023-02-28T22:13:12.521Z,35.00
2023-02-28T22:15:41.771Z,35.00
2023-02-28T22:18:11.995Z,34.80
2023-02-28T22:20:42.296Z,35.10
2023-02-28T22:23:11.494Z,35.00
2023-02-28T22:25:40.758Z,34.80
2023-02-28T22:28:09.917Z,34.80
2023-02-28T22:30:38.902Z,34.90
2023-02-28T22:33:07.602Z,34.80
2023-02-28T22:35:35.993Z,34.70
2023-02-28T22:38:05.219Z,34.70
2023-02-28T22:40:35.550Z,34.80
2023-02-28T22:43:04.427Z,34.70
2023-02-28T22:45:37.736Z,34.70
2023-02-28T22:48:06.055Z,34.80
2023-02-28T22:50:35.506Z,34.70
2023-02-28T22:53:04.784Z,34.80
2023-02-28T22:55:34.028Z,34.80
2023-02-28T22:58:03.168Z,34.80
2023-02-28T23:00:31.948Z,34.80
2023-02-28T23:03:00.655Z,34.80
2023-02-28T23:05:29.839Z,34.80
2023-02-28T23:07:59.120Z,34.80
2023-02-28T23:10:28.052Z,34.80
2023-02-28T23:12:56.173Z,34.80
2023-02-28T23:15:25.393Z,34.80
2023-02-28T23:17:54.370Z,34.80
2023-02-28T23:20:23.021Z,34.90
2023-02-28T23:22:52.261Z,34.80
2023-02-28T23:25:21.444Z,34.80
2023-02-28T23:27:50.602Z,34.80
2023-02-28T23:30:19.576Z,34.90
2023-02-28T23:32:48.299Z,34.90
2023-02-28T23:35:17.560Z,34.90
2023-02-28T23:37:46.370Z,34.90
2023-02-28T23:40:15.608Z,34.90
2023-02-28T23:42:44.968Z,34.80
2023-02-28T23:45:14.227Z,34.80
2023-02-28T23:47:43.539Z,34.80
2023-02-28T23:50:12.743Z,34.80
2023-02-28T23:52:42.022Z,34.70
2023-02-28T23:55:11.345Z,34.80
2023-02-28T23:57:40.625Z,34.70
